createdAt,value
2022-11-10T00:02:05.371Z,8.00
2022-11-10T00:04:50.440Z,11.20
2022-11-10T00:07:36.023Z,9.65
2022-11-10T00:10:21.343Z,8.30
2022-11-10T00:13:06.407Z,9.82
2022-11-10T00:16:10.548Z,9.00
2022-11-10T00:18:55.874Z,8.48
2022-11-10T00:21:41.360Z,9.25
2022-11-10T00:24:27.371Z,7.95
2022-11-10T00:27:14.671Z,7.00
2022-11-10T00:30:00.313Z,6.25
2022-11-10T00:32:48.147Z,6.93
2022-11-10T00:35:33.444Z,7.03
2022-11-10T00:38:18.841Z,6.45
2022-11-10T00:41:04.184Z,6.93
2022-11-10T00:43:49.714Z,6.53
2022-11-10T00:46:35.115Z,6.18
2022-11-10T00:49:20.223Z,5.93
2022-11-10T00:52:05.414Z,5.82
2022-11-10T00:54:50.460Z,6.13
2022-11-10T00:57:35.575Z,5.70
2022-11-10T01:00:20.971Z,5.32
2022-11-10T01:03:07.032Z,5.38
2022-11-10T01:05:52.467Z,5.78
2022-11-10T01:08:38.478Z,7.93
2022-11-10T01:11:26.976Z,6.10
2022-11-10T01:14:12.271Z,7.00
2022-11-10T01:16:57.389Z,7.45
2022-11-10T01:19:42.598Z,7.07
2022-11-10T01:22:27.781Z,7.82
2022-11-10T01:25:13.090Z,7.78
2022-11-10T01:27:58.687Z,7.95
2022-11-10T01:30:43.849Z,7.85
2022-11-10T01:33:29.707Z,6.75
2022-11-10T01:36:15.282Z,5.50
2022-11-10T01:39:00.905Z,6.18
2022-11-10T01:41:46.386Z,7.70
2022-11-10T01:44:31.834Z,5.80
2022-11-10T01:47:17.321Z,5.55
2022-11-10T01:50:02.716Z,7.07
2022-11-10T01:52:52.136Z,7.97
2022-11-10T01:55:41.367Z,6.60
2022-11-10T01:58:32.871Z,7.22
2022-11-10T02:01:18.585Z,7.10
2022-11-10T02:04:07.338Z,6.32
2022-11-10T02:06:54.468Z,6.22
2022-11-10T02:09:40.103Z,6.53
2022-11-10T02:12:37.571Z,6.05
2022-11-10T02:15:24.648Z,6.53
2022-11-10T02:18:09.647Z,7.47
2022-11-10T02:20:54.972Z,8.73
2022-11-10T02:23:39.995Z,6.80
2022-11-10T02:26:30.146Z,6.20
2022-11-10T02:29:15.607Z,6.10
2022-11-10T02:32:00.635Z,7.75
2022-11-10T02:34:45.733Z,6.38
2022-11-10T02:37:30.860Z,6.85
2022-11-10T02:40:16.221Z,5.78
2022-11-10T02:43:04.176Z,4.47
2022-11-10T02:45:49.486Z,5.85
2022-11-10T02:48:34.715Z,5.95
2022-11-10T02:51:20.028Z,4.70
2022-11-10T02:54:06.205Z,4.63
2022-11-10T02:56:51.504Z,5.15
2022-11-10T02:59:36.787Z,4.60
2022-11-10T03:02:22.094Z,4.47
2022-11-10T03:05:07.419Z,3.90
2022-11-10T03:07:55.406Z,5.97
2022-11-10T03:10:40.628Z,4.93
2022-11-10T03:13:35.591Z,3.80
2022-11-10T03:16:31.580Z,4.22
2022-11-10T03:19:16.806Z,3.80
2022-11-10T03:22:02.106Z,5.28
2022-11-10T03:24:47.171Z,4.45
2022-11-10T03:27:32.620Z,4.15
2022-11-10T03:30:17.668Z,4.85
2022-11-10T03:33:03.175Z,4.30
2022-11-10T03:35:48.613Z,4.63
2022-11-10T03:38:33.933Z,5.55
2022-11-10T03:41:20.521Z,5.78
2022-11-10T03:44:06.304Z,4.18
2022-11-10T03:46:52.015Z,5.88
2022-11-10T03:49:37.397Z,3.33
2022-11-10T03:52:22.445Z,6.03
2022-11-10T03:55:09.595Z,3.92
2022-11-10T03:57:54.873Z,7.75
2022-11-10T04:00:40.099Z,4.22
2022-11-10T04:03:25.793Z,3.47
2022-11-10T04:06:30.458Z,7.05
2022-11-10T04:09:15.931Z,3.30
2022-11-10T04:12:24.657Z,2.88
2022-11-10T04:15:30.327Z,3.45
2022-11-10T04:18:21.657Z,3.47
2022-11-10T04:21:06.858Z,5.55
2022-11-10T04:23:52.240Z,3.88
2022-11-10T04:26:38.829Z,4.85
2022-11-10T04:29:23.750Z,4.85
2022-11-10T04:32:08.866Z,6.57
2022-11-10T04:34:53.917Z,3.58
2022-11-10T04:37:39.090Z,4.70
2022-11-10T04:40:24.528Z,4.13
2022-11-10T04:43:09.653Z,2.92
2022-11-10T04:45:55.662Z,4.78
2022-11-10T04:48:41.039Z,7.80
2022-11-10T04:51:32.139Z,6.30
2022-11-10T04:54:17.551Z,4.00
2022-11-10T04:57:02.883Z,5.22
2022-11-10T04:59:48.353Z,5.18
2022-11-10T05:02:38.303Z,4.10
2022-11-10T05:05:25.106Z,5.35
2022-11-10T05:08:10.556Z,4.05
2022-11-10T05:10:55.989Z,4.35
2022-11-10T05:13:42.239Z,4.40
2022-11-10T05:16:27.576Z,3.70
2022-11-10T05:19:13.111Z,3.85
2022-11-10T05:21:58.479Z,3.70
2022-11-10T05:24:43.662Z,4.07
2022-11-10T05:27:29.925Z,5.38
2022-11-10T05:30:15.431Z,4.18
2022-11-10T05:33:01.354Z,5.07
2022-11-10T05:35:49.054Z,6.32
2022-11-10T05:38:37.730Z,5.20
2022-11-10T05:41:25.695Z,3.85
2022-11-10T05:44:10.747Z,5.10
2022-11-10T05:46:55.759Z,4.90
2022-11-10T05:49:40.735Z,5.05
2022-11-10T05:52:25.979Z,4.30
2022-11-10T05:55:12.437Z,4.72
2022-11-10T05:57:57.858Z,5.78
2022-11-10T06:00:43.521Z,4.20
2022-11-10T06:03:28.952Z,7.65
2022-11-10T06:06:14.408Z,5.80
2022-11-10T06:08:59.713Z,5.72
2022-11-10T06:11:45.030Z,6.30
2022-11-10T06:14:30.508Z,5.15
2022-11-10T06:17:15.760Z,5.40
2022-11-10T06:20:01.138Z,4.57
2022-11-10T06:23:07.855Z,6.10
2022-11-10T06:25:53.258Z,4.20
2022-11-10T06:28:38.520Z,5.05
2022-11-10T06:31:23.784Z,4.97
2022-11-10T06:34:09.085Z,4.85
2022-11-10T06:36:54.370Z,6.03
2022-11-10T06:39:39.727Z,6.03
2022-11-10T06:42:24.969Z,5.28
2022-11-10T06:45:10.297Z,7.03
2022-11-10T06:48:03.276Z,6.05
2022-11-10T06:50:48.546Z,7.75
2022-11-10T06:53:34.492Z,6.05
2022-11-10T06:56:19.767Z,8.07
2022-11-10T06:59:04.928Z,5.68
2022-11-10T07:01:50.501Z,7.70
2022-11-10T07:04:35.750Z,8.70
2022-11-10T07:07:21.216Z,10.48
2022-11-10T07:10:08.961Z,7.32
2022-11-10T07:13:02.347Z,7.95
2022-11-10T07:15:48.082Z,5.88
2022-11-10T07:18:34.203Z,6.03
2022-11-10T07:21:19.470Z,5.55
2022-11-10T07:24:04.770Z,6.45
2022-11-10T07:26:50.218Z,9.23
2022-11-10T07:29:35.406Z,9.13
2022-11-10T07:32:20.497Z,11.10
2022-11-10T07:35:05.591Z,7.90
2022-11-10T07:37:51.120Z,10.23
2022-11-10T07:40:36.990Z,8.65
2022-11-10T07:43:24.287Z,7.82
2022-11-10T07:46:10.344Z,9.40
2022-11-10T07:48:55.634Z,7.80
2022-11-10T07:51:42.766Z,7.00
2022-11-10T07:54:28.236Z,7.93
2022-11-10T07:57:13.470Z,7.10
2022-11-10T07:59:58.673Z,7.18
2022-11-10T08:02:43.798Z,5.63
2022-11-10T08:05:28.879Z,6.05
2022-11-10T08:08:14.533Z,6.65
2022-11-10T08:10:59.967Z,7.43
2022-11-10T08:13:45.019Z,5.05
2022-11-10T08:16:30.059Z,7.80
2022-11-10T08:19:15.357Z,5.03
2022-11-10T08:22:00.888Z,5.22
2022-11-10T08:24:46.006Z,5.40
2022-11-10T08:27:31.420Z,6.13
2022-11-10T08:30:16.655Z,6.90
2022-11-10T08:33:03.030Z,7.00
2022-11-10T08:35:50.292Z,7.82
2022-11-10T08:38:35.775Z,8.60
2022-11-10T08:41:21.195Z,8.95
2022-11-10T08:44:10.723Z,9.82
2022-11-10T08:46:56.380Z,5.57
2022-11-10T08:49:41.750Z,4.68
2022-11-10T08:52:26.729Z,5.43
2022-11-10T08:55:11.862Z,3.47
2022-11-10T08:58:01.712Z,5.18
2022-11-10T09:00:47.241Z,5.45
2022-11-10T09:03:32.753Z,4.80
2022-11-10T09:06:18.241Z,5.47
2022-11-10T09:09:03.811Z,6.25
2022-11-10T09:11:48.973Z,4.10
2022-11-10T09:14:34.038Z,4.57
2022-11-10T09:17:19.229Z,6.68
2022-11-10T09:20:06.216Z,6.32
2022-11-10T09:22:51.596Z,6.55
2022-11-10T09:25:38.060Z,5.55
2022-11-10T09:28:23.823Z,2.30
2022-11-10T09:31:09.264Z,3.58
2022-11-10T09:33:54.687Z,5.43
2022-11-10T09:36:40.758Z,3.97
2022-11-10T09:39:26.216Z,5.13
2022-11-10T09:42:34.337Z,5.78
2022-11-10T09:45:45.906Z,4.28
2022-11-10T09:48:37.613Z,3.65
2022-11-10T09:51:31.531Z,2.90
2022-11-10T09:54:22.388Z,5.57
2022-11-10T09:57:13.039Z,5.63
2022-11-10T09:59:58.438Z,6.32
2022-11-10T10:02:56.138Z,6.35
2022-11-10T10:06:07.148Z,6.10
2022-11-10T10:09:11.788Z,7.60
2022-11-10T10:12:17.585Z,4.13
2022-11-10T10:15:15.216Z,5.15
2022-11-10T10:18:25.106Z,3.45
2022-11-10T10:21:22.669Z,8.02
2022-11-10T10:24:21.410Z,4.47
2022-11-10T10:27:15.545Z,5.13
2022-11-10T10:30:01.168Z,3.53
2022-11-10T10:32:46.554Z,4.35
2022-11-10T10:35:37.681Z,2.67
2022-11-10T10:38:32.696Z,6.15
2022-11-10T10:41:25.344Z,5.97
2022-11-10T10:44:16.126Z,5.00
2022-11-10T10:47:02.873Z,4.20
2022-11-10T10:49:48.395Z,4.30
2022-11-10T10:52:33.609Z,3.85
2022-11-10T10:55:18.703Z,5.22
2022-11-10T10:58:24.029Z,4.20
2022-11-10T11:01:15.586Z,6.05
2022-11-10T11:04:06.159Z,5.40
2022-11-10T11:07:05.997Z,2.33
2022-11-10T11:09:51.259Z,5.28
2022-11-10T11:12:36.781Z,4.28
2022-11-10T11:15:26.628Z,3.60
2022-11-10T11:18:17.435Z,3.70
2022-11-10T11:21:34.893Z,5.38
2022-11-10T11:25:00.988Z,3.38
2022-11-10T11:28:07.671Z,3.70
2022-11-10T11:31:27.439Z,3.08
2022-11-10T11:34:32.557Z,3.38
2022-11-10T11:37:33.889Z,3.42
2022-11-10T11:40:27.259Z,2.95
2022-11-10T11:43:31.261Z,4.20
2022-11-10T11:46:44.980Z,5.00
2022-11-10T11:49:43.210Z,2.58
2022-11-10T11:52:36.094Z,3.55
2022-11-10T11:55:32.109Z,5.13
2022-11-10T11:58:25.375Z,2.33
2022-11-10T12:01:30.017Z,3.22
2022-11-10T12:04:24.200Z,3.90
2022-11-10T12:07:52.812Z,3.00
2022-11-10T12:11:07.235Z,6.82
2022-11-10T12:14:11.332Z,4.38
2022-11-10T12:17:20.123Z,4.80
2022-11-10T12:20:40.883Z,2.13
2022-11-10T12:23:41.235Z,2.88
2022-11-10T12:26:38.447Z,3.22
2022-11-10T12:29:53.234Z,5.60
2022-11-10T12:32:50.971Z,3.25
2022-11-10T12:35:41.408Z,3.53
2022-11-10T12:38:40.244Z,2.05
2022-11-10T12:41:31.796Z,4.47
2022-11-10T12:44:42.291Z,4.80
2022-11-10T12:47:34.124Z,4.53
2022-11-10T12:50:28.375Z,3.53
2022-11-10T12:53:33.597Z,4.30
2022-11-10T12:56:27.191Z,3.58
2022-11-10T12:59:21.733Z,2.55
2022-11-10T13:02:16.253Z,4.22
2022-11-10T13:05:25.673Z,3.20
2022-11-10T13:08:30.894Z,2.55
2022-11-10T13:11:16.138Z,3.63
2022-11-10T13:14:03.907Z,2.40
2022-11-10T13:16:53.902Z,1.98
2022-11-10T13:19:39.234Z,3.35
2022-11-10T13:22:30.739Z,3.08
2022-11-10T13:25:37.702Z,2.60
2022-11-10T13:28:47.886Z,2.08
2022-11-10T13:31:33.003Z,3.35
2022-11-10T13:34:17.957Z,2.35
2022-11-10T13:37:24.332Z,2.00
2022-11-10T13:40:18.648Z,3.42
2022-11-10T13:43:03.729Z,3.55
2022-11-10T13:45:58.876Z,2.17
2022-11-10T13:48:59.148Z,2.83
2022-11-10T13:51:48.719Z,1.90
2022-11-10T13:54:34.149Z,1.95
2022-11-10T13:57:28.743Z,2.67
2022-11-10T14:00:13.907Z,4.13
2022-11-10T14:03:03.337Z,3.00
2022-11-10T14:06:11.958Z,7.10
2022-11-10T14:09:17.888Z,3.78
2022-11-10T14:12:14.992Z,4.18
2022-11-10T14:15:12.590Z,2.80
2022-11-10T14:17:58.179Z,4.10
2022-11-10T14:20:46.339Z,3.38
2022-11-10T14:23:40.306Z,2.95
2022-11-10T14:26:45.013Z,3.17
2022-11-10T14:29:31.501Z,3.95
2022-11-10T14:32:21.248Z,3.28
2022-11-10T14:35:17.187Z,4.45
2022-11-10T14:38:06.918Z,4.38
2022-11-10T14:41:01.407Z,3.42
2022-11-10T14:44:11.657Z,4.38
2022-11-10T14:47:12.339Z,3.33
2022-11-10T14:50:28.199Z,2.72
2022-11-10T14:53:23.279Z,5.82
2022-11-10T14:56:17.300Z,2.47
2022-11-10T14:59:05.961Z,1.75
2022-11-10T15:02:00.541Z,2.28
2022-11-10T15:04:50.068Z,1.83
2022-11-10T15:07:35.530Z,2.53
2022-11-10T15:10:43.612Z,6.28
2022-11-10T15:13:31.832Z,1.70
2022-11-10T15:16:36.609Z,2.83
2022-11-10T15:19:27.644Z,1.75
2022-11-10T15:22:12.883Z,1.55
2022-11-10T15:25:07.914Z,1.55
2022-11-10T15:27:57.819Z,1.73
2022-11-10T15:30:55.385Z,1.40
2022-11-10T15:33:46.774Z,1.27
2022-11-10T15:36:35.674Z,2.28
2022-11-10T15:39:26.551Z,1.40
2022-11-10T15:42:15.947Z,2.55
2022-11-10T15:45:01.349Z,2.65
2022-11-10T15:47:47.085Z,5.30
2022-11-10T15:50:32.612Z,4.38
2022-11-10T15:53:27.641Z,2.60
2022-11-10T15:56:14.745Z,3.13
2022-11-10T15:59:02.573Z,5.32
2022-11-10T16:01:48.821Z,4.15
2022-11-10T16:04:34.079Z,3.80
2022-11-10T16:07:19.474Z,6.97
2022-11-10T16:10:06.129Z,1.60
2022-11-10T16:12:51.725Z,1.65
2022-11-10T16:15:38.295Z,4.10
2022-11-10T16:18:26.585Z,5.70
2022-11-10T16:21:16.902Z,4.40
2022-11-10T16:24:02.577Z,2.08
2022-11-10T16:26:48.018Z,3.47
2022-11-10T16:29:35.267Z,2.90
2022-11-10T16:32:20.534Z,6.85
2022-11-10T16:35:05.960Z,6.60
2022-11-10T16:37:51.176Z,5.55
2022-11-10T16:40:37.500Z,9.52
2022-11-10T16:43:23.653Z,8.10
2022-11-10T16:46:29.559Z,7.57
2022-11-10T16:49:26.213Z,9.90
2022-11-10T16:52:15.299Z,10.52
2022-11-10T16:55:00.404Z,11.90
2022-11-10T16:57:45.774Z,11.82
2022-11-10T17:00:30.950Z,8.93
2022-11-10T17:03:28.409Z,7.97
2022-11-10T17:06:15.624Z,7.65
2022-11-10T17:09:07.982Z,5.22
2022-11-10T17:11:52.943Z,4.95
2022-11-10T17:14:38.011Z,6.38
2022-11-10T17:17:23.662Z,6.22
2022-11-10T17:20:17.615Z,8.82
2022-11-10T17:23:04.275Z,7.88
2022-11-10T17:25:50.993Z,6.63
2022-11-10T17:28:36.167Z,6.85
2022-11-10T17:31:21.798Z,6.70
2022-11-10T17:34:07.355Z,7.32
2022-11-10T17:36:52.644Z,9.98
2022-11-10T17:39:38.848Z,13.55
2022-11-10T17:42:24.022Z,8.60
2022-11-10T17:45:17.181Z,9.65
2022-11-10T17:48:02.235Z,6.75
2022-11-10T17:50:47.634Z,5.88
2022-11-10T17:53:33.200Z,5.20
2022-11-10T17:56:18.837Z,6.97
2022-11-10T17:59:04.085Z,5.65
2022-11-10T18:01:49.203Z,7.45
2022-11-10T18:04:34.384Z,6.72
2022-11-10T18:07:19.773Z,5.60
2022-11-10T18:10:06.554Z,45.60
2022-11-10T18:12:51.864Z,8.73
2022-11-10T18:15:40.921Z,8.13
2022-11-10T18:18:26.271Z,6.93
2022-11-10T18:21:12.022Z,6.90
2022-11-10T18:23:57.104Z,8.40
2022-11-10T18:26:42.661Z,6.95
2022-11-10T18:29:27.891Z,7.55
2022-11-10T18:32:13.568Z,9.00
2022-11-10T18:34:58.774Z,9.15
2022-11-10T18:37:43.895Z,14.55
2022-11-10T18:40:29.006Z,10.65
2022-11-10T18:43:14.460Z,10.30
2022-11-10T18:45:59.838Z,6.53
2022-11-10T18:48:46.355Z,5.85
2022-11-10T18:51:32.231Z,6.53
2022-11-10T18:54:17.770Z,5.45
2022-11-10T18:57:03.119Z,6.65
2022-11-10T18:59:48.348Z,6.38
2022-11-10T19:02:34.362Z,6.28
2022-11-10T19:05:19.706Z,6.75
2022-11-10T19:08:07.036Z,5.15
2022-11-10T19:10:52.926Z,5.90
2022-11-10T19:13:38.353Z,9.88
2022-11-10T19:16:23.309Z,12.32
2022-11-10T19:19:10.098Z,7.80
2022-11-10T19:21:55.580Z,9.43
2022-11-10T19:25:00.824Z,8.30
2022-11-10T19:27:46.202Z,7.68
2022-11-10T19:30:31.576Z,8.98
2022-11-10T19:33:16.829Z,8.75
2022-11-10T19:36:04.499Z,9.13
2022-11-10T19:38:50.326Z,6.85
2022-11-10T19:41:35.910Z,11.52
2022-11-10T19:44:21.440Z,9.52
2022-11-10T19:47:06.543Z,12.93
2022-11-10T19:49:51.511Z,9.75
2022-11-10T19:52:37.078Z,9.18
2022-11-10T19:55:22.532Z,7.97
2022-11-10T19:58:08.536Z,9.05
2022-11-10T20:00:54.517Z,8.85
2022-11-10T20:03:40.286Z,5.78
2022-11-10T20:06:25.638Z,8.05
2022-11-10T20:09:10.822Z,5.70
2022-11-10T20:11:56.277Z,5.28
2022-11-10T20:14:41.289Z,8.55
2022-11-10T20:17:26.775Z,6.95
2022-11-10T20:20:12.329Z,6.15
2022-11-10T20:23:02.345Z,6.18
2022-11-10T20:25:47.902Z,8.98
2022-11-10T20:28:35.819Z,7.40
2022-11-10T20:31:24.270Z,10.02
2022-11-10T20:34:09.326Z,14.48
2022-11-10T20:36:55.591Z,17.20
2022-11-10T20:39:40.698Z,15.63
2022-11-10T20:42:25.997Z,11.85
2022-11-10T20:45:11.510Z,9.93
2022-11-10T20:47:57.787Z,9.35
2022-11-10T20:50:43.060Z,9.32
2022-11-10T20:53:29.128Z,11.18
2022-11-10T20:56:15.217Z,12.93
2022-11-10T20:59:00.687Z,12.93
2022-11-10T21:01:46.418Z,17.42
2022-11-10T21:04:31.538Z,15.50
2022-11-10T21:07:16.788Z,15.18
2022-11-10T21:10:02.156Z,19.00
2022-11-10T21:12:50.049Z,15.00
2022-11-10T21:15:40.152Z,14.38
2022-11-10T21:18:31.580Z,13.02
2022-11-10T21:21:22.535Z,15.80
2022-11-10T21:24:09.250Z,15.77
2022-11-10T21:26:55.794Z,18.85
2022-11-10T21:29:42.262Z,13.20
2022-11-10T21:32:27.841Z,13.10
2022-11-10T21:35:13.251Z,11.55
2022-11-10T21:37:58.604Z,11.90
2022-11-10T21:40:43.728Z,10.68
2022-11-10T21:43:29.147Z,10.43
2022-11-10T21:46:14.521Z,8.00
2022-11-10T21:49:03.229Z,8.05
2022-11-10T21:51:52.903Z,7.03
2022-11-10T21:54:38.076Z,7.45
2022-11-10T21:57:23.392Z,6.10
2022-11-10T22:00:10.939Z,6.40
2022-11-10T22:03:00.876Z,7.53
2022-11-10T22:05:46.247Z,6.03
2022-11-10T22:08:31.951Z,8.38
2022-11-10T22:11:38.790Z,7.85
2022-11-10T22:14:42.798Z,9.07
2022-11-10T22:17:46.562Z,9.30
2022-11-10T22:20:31.989Z,9.10
2022-11-10T22:23:17.139Z,8.02
2022-11-10T22:26:02.499Z,10.65
2022-11-10T22:28:48.137Z,8.70
2022-11-10T22:31:33.779Z,10.10
2022-11-10T22:34:20.161Z,11.57
2022-11-10T22:37:05.610Z,11.95
2022-11-10T22:40:09.442Z,13.68
2022-11-10T22:43:13.418Z,13.63
2022-11-10T22:45:58.802Z,11.15
2022-11-10T22:48:44.288Z,11.27
2022-11-10T22:51:30.841Z,9.95
2022-11-10T22:54:18.598Z,9.75
2022-11-10T22:57:03.894Z,9.70
2022-11-10T22:59:48.978Z,7.85
2022-11-10T23:02:34.206Z,10.05
2022-11-10T23:05:19.799Z,9.23
2022-11-10T23:08:05.551Z,8.48
2022-11-10T23:11:05.200Z,7.95
2022-11-10T23:13:51.002Z,8.07
2022-11-10T23:16:36.454Z,7.03
2022-11-10T23:19:21.587Z,10.45
2022-11-10T23:22:06.838Z,7.30
2022-11-10T23:24:57.056Z,9.63
2022-11-10T23:27:42.695Z,8.77
2022-11-10T23:30:27.756Z,6.50
2022-11-10T23:33:12.954Z,7.15
2022-11-10T23:35:57.983Z,11.35
2022-11-10T23:38:44.522Z,9.43
2022-11-10T23:41:29.878Z,7.80
2022-11-10T23:44:15.100Z,7.38
2022-11-10T23:47:00.250Z,6.70
2022-11-10T23:49:45.248Z,7.55
2022-11-10T23:52:30.686Z,6.88
2022-11-10T23:55:15.829Z,6.55
2022-11-10T23:58:01.260Z,6.45
